createdAt,value
2023-10-07T00:04:34.438Z,24.10
2023-10-07T00:09:38.382Z,24.33
2023-10-07T00:14:40.328Z,21.50
2023-10-07T00:19:42.044Z,24.45
2023-10-07T00:24:45.331Z,21.55
2023-10-07T00:29:47.157Z,22.85
2023-10-07T00:34:49.020Z,22.55
2023-10-07T00:39:52.633Z,21.60
2023-10-07T00:44:54.366Z,22.65
2023-10-07T00:49:56.633Z,20.55
2023-10-07T00:55:00.899Z,21.52
2023-10-07T01:00:04.847Z,22.60
2023-10-07T01:05:07.181Z,22.30
2023-10-07T01:10:11.004Z,21.48
2023-10-07T01:15:13.262Z,23.08
2023-10-07T01:20:15.221Z,21.20
2023-10-07T01:25:18.357Z,21.48
2023-10-07T01:30:20.162Z,22.20
2023-10-07T01:35:21.941Z,22.45
2023-10-07T01:40:24.989Z,21.00
2023-10-07T01:45:26.921Z,21.50
2023-10-07T01:50:28.782Z,21.20
2023-10-07T01:55:36.163Z,22.15
2023-10-07T02:00:38.052Z,22.35
2023-10-07T02:05:40.507Z,20.27
2023-10-07T02:10:43.726Z,22.48
2023-10-07T02:15:46.124Z,23.45
2023-10-07T02:20:49.348Z,22.98
2023-10-07T02:25:52.611Z,22.45
2023-10-07T02:30:54.498Z,23.10
2023-10-07T02:35:58.255Z,23.92
2023-10-07T02:41:01.567Z,26.17
2023-10-07T02:46:04.169Z,22.73
2023-10-07T02:51:05.951Z,24.73
2023-10-07T02:56:09.163Z,22.60
2023-10-07T03:01:11.001Z,22.60
2023-10-07T03:06:12.800Z,23.42
2023-10-07T03:11:16.005Z,24.65
2023-10-07T03:16:19.111Z,27.17
2023-10-07T03:21:20.934Z,26.05
2023-10-07T03:26:24.059Z,25.08
2023-10-07T03:31:25.857Z,25.15
2023-10-07T03:36:27.650Z,25.45
2023-10-07T03:41:30.844Z,25.02
2023-10-07T03:46:32.649Z,25.33
2023-10-07T03:51:34.573Z,23.10
2023-10-07T03:56:37.812Z,25.37
2023-10-07T04:01:39.640Z,23.62
2023-10-07T04:06:41.685Z,23.50
2023-10-07T04:11:45.175Z,27.27
2023-10-07T04:16:49.756Z,23.87
2023-10-07T04:21:51.521Z,23.92
2023-10-07T04:26:58.605Z,25.02
2023-10-07T04:32:01.688Z,24.10
2023-10-07T04:37:03.558Z,24.00
2023-10-07T04:42:07.125Z,21.55
2023-10-07T04:47:09.086Z,21.05
2023-10-07T04:52:10.919Z,22.17
2023-10-07T04:57:13.992Z,22.08
2023-10-07T05:02:15.956Z,24.17
2023-10-07T05:07:18.316Z,21.70
2023-10-07T05:12:21.485Z,23.08
2023-10-07T05:17:23.389Z,20.98
2023-10-07T05:22:25.166Z,21.25
2023-10-07T05:27:28.249Z,22.13
2023-10-07T05:32:30.054Z,22.33
2023-10-07T05:37:31.914Z,22.50
2023-10-07T05:42:35.134Z,20.90
2023-10-07T05:47:37.066Z,24.87
2023-10-07T05:52:38.996Z,21.83
2023-10-07T05:57:42.141Z,22.50
2023-10-07T06:02:44.072Z,21.35
2023-10-07T06:07:46.025Z,22.30
2023-10-07T06:12:49.292Z,22.67
2023-10-07T06:17:51.196Z,23.25
2023-10-07T06:22:53.228Z,24.05
2023-10-07T06:27:56.476Z,23.33
2023-10-07T06:32:58.215Z,22.65
2023-10-07T06:38:00.054Z,22.70
2023-10-07T06:43:03.430Z,22.77
2023-10-07T06:48:06.675Z,25.05
2023-10-07T06:53:08.639Z,23.27
2023-10-07T06:58:14.284Z,22.13
2023-10-07T07:03:16.461Z,25.20
2023-10-07T07:08:18.429Z,23.80
2023-10-07T07:13:21.582Z,21.48
2023-10-07T07:18:23.365Z,21.05
2023-10-07T07:23:25.181Z,22.10
2023-10-07T07:28:28.312Z,22.80
2023-10-07T07:33:30.184Z,21.77
2023-10-07T07:38:32.173Z,22.25
2023-10-07T07:43:36.765Z,24.40
2023-10-07T07:48:38.786Z,21.33
2023-10-07T07:53:40.559Z,21.58
2023-10-07T07:58:43.903Z,22.45
2023-10-07T08:03:46.100Z,23.95
2023-10-07T08:08:48.301Z,24.05
2023-10-07T08:13:51.617Z,23.85
2023-10-07T08:18:53.549Z,22.55
2023-10-07T08:23:55.507Z,22.98
2023-10-07T08:28:58.879Z,23.33
2023-10-07T08:34:03.897Z,22.02
2023-10-07T08:39:06.258Z,22.23
2023-10-07T08:44:10.873Z,22.35
2023-10-07T08:49:14.726Z,23.05
2023-10-07T08:54:16.418Z,22.08
2023-10-07T08:59:20.589Z,22.95
2023-10-07T09:04:22.389Z,23.85
2023-10-07T09:09:34.729Z,28.00
2023-10-07T09:14:38.258Z,29.30
2023-10-07T09:19:40.103Z,26.23
2023-10-07T09:24:42.278Z,26.15
2023-10-07T09:29:45.395Z,25.45
2023-10-07T09:34:47.263Z,25.08
2023-10-07T09:39:49.356Z,25.17
2023-10-07T09:44:56.588Z,25.40
2023-10-07T09:49:58.344Z,25.23
2023-10-07T09:55:20.480Z,22.70
2023-10-07T10:00:31.350Z,24.10
2023-10-07T10:05:45.874Z,25.35
2023-10-07T10:10:48.120Z,22.83
2023-10-07T10:15:53.570Z,23.05
2023-10-07T10:21:02.769Z,21.15
2023-10-07T10:26:05.596Z,22.45
2023-10-07T10:31:18.431Z,22.48
2023-10-07T10:36:20.979Z,22.83
2023-10-07T10:41:28.979Z,22.17
2023-10-07T10:46:41.344Z,25.98
2023-10-07T10:51:47.077Z,25.30
2023-10-07T10:56:49.991Z,28.70
2023-10-07T11:01:53.399Z,22.17
2023-10-07T11:06:56.250Z,21.95
2023-10-07T11:11:58.050Z,23.80
2023-10-07T11:17:01.233Z,24.80
2023-10-07T11:22:03.077Z,29.92
2023-10-07T11:27:10.800Z,25.77
2023-10-07T11:32:14.335Z,22.13
2023-10-07T11:37:16.673Z,26.30
2023-10-07T11:42:19.494Z,26.92
2023-10-07T11:47:23.370Z,26.87
2023-10-07T11:52:25.144Z,19.40
2023-10-07T11:57:27.465Z,22.70
2023-10-07T12:02:30.723Z,26.15
2023-10-07T12:07:32.549Z,19.48
2023-10-07T12:12:34.391Z,21.77
2023-10-07T12:17:37.555Z,21.92
2023-10-07T12:22:39.615Z,20.80
2023-10-07T12:27:41.635Z,23.70
2023-10-07T12:32:45.093Z,23.90
2023-10-07T12:37:47.285Z,23.80
2023-10-07T12:42:50.362Z,22.25
2023-10-07T12:47:53.663Z,21.27
2023-10-07T12:52:57.704Z,17.08
2023-10-07T12:57:59.835Z,16.92
2023-10-07T13:03:04.051Z,20.60
2023-10-07T13:08:07.468Z,27.83
2023-10-07T13:13:12.585Z,21.45
2023-10-07T13:23:17.798Z,21.90
2023-10-07T13:28:19.579Z,21.65
2023-10-07T13:33:22.595Z,19.80
2023-10-07T13:38:24.430Z,23.08
2023-10-07T13:43:26.568Z,21.58
2023-10-07T13:48:34.425Z,21.05
2023-10-07T13:53:36.243Z,16.42
2023-10-07T13:58:38.060Z,19.17
2023-10-07T14:03:41.302Z,19.62
2023-10-07T14:08:43.609Z,20.50
2023-10-07T14:13:45.373Z,21.08
2023-10-07T14:18:48.493Z,20.75
2023-10-07T14:23:50.291Z,20.20
2023-10-07T14:28:52.027Z,21.92
2023-10-07T14:33:55.260Z,21.02
2023-10-07T14:38:57.110Z,26.25
2023-10-07T14:43:59.140Z,26.77
2023-10-07T14:49:02.319Z,21.17
2023-10-07T14:54:04.658Z,22.70
2023-10-07T14:59:06.558Z,21.35
2023-10-07T15:04:09.719Z,21.55
2023-10-07T15:09:11.665Z,21.37
2023-10-07T15:14:13.568Z,21.40
2023-10-07T15:19:16.771Z,21.30
2023-10-07T15:24:18.495Z,20.98
2023-10-07T15:29:20.347Z,20.33
2023-10-07T15:34:23.581Z,20.77
2023-10-07T15:39:25.446Z,18.80
2023-10-07T15:44:27.210Z,20.05
2023-10-07T15:49:30.331Z,20.02
2023-10-07T15:54:32.180Z,19.08
2023-10-07T15:59:33.989Z,21.98
2023-10-07T16:04:37.339Z,21.15
2023-10-07T16:09:39.203Z,22.90
2023-10-07T16:14:41.094Z,21.92
2023-10-07T16:19:44.338Z,22.08
2023-10-07T16:24:46.150Z,25.02
2023-10-07T16:29:50.624Z,25.12
2023-10-07T16:34:53.883Z,26.03
2023-10-07T16:39:55.739Z,24.55
2023-10-07T16:44:57.557Z,23.10
2023-10-07T16:50:00.868Z,22.02
2023-10-07T16:55:02.801Z,23.35
2023-10-07T17:00:06.455Z,25.48
2023-10-07T17:05:10.349Z,27.13
2023-10-07T17:10:12.415Z,28.25
2023-10-07T17:15:14.413Z,31.15
2023-10-07T17:20:17.728Z,32.38
2023-10-07T17:25:19.519Z,38.70
2023-10-07T17:30:22.057Z,42.78
2023-10-07T17:35:25.552Z,53.22
2023-10-07T17:40:27.535Z,54.25
2023-10-07T17:45:29.526Z,51.92
2023-10-07T17:50:33.048Z,55.67
2023-10-07T17:55:34.854Z,55.50
2023-10-07T18:00:36.650Z,55.92
2023-10-07T18:05:39.833Z,50.28
2023-10-07T18:10:41.616Z,52.13
2023-10-07T18:15:43.407Z,56.15
2023-10-07T18:20:53.081Z,49.10
2023-10-07T18:25:54.896Z,48.53
2023-10-07T18:30:59.468Z,47.00
2023-10-07T18:36:02.676Z,48.45
2023-10-07T18:41:04.469Z,45.78
2023-10-07T18:46:06.341Z,50.78
2023-10-07T18:51:10.573Z,49.20
2023-10-07T18:56:12.501Z,47.77
2023-10-07T19:01:15.619Z,47.80
2023-10-07T19:06:18.723Z,42.28
2023-10-07T19:11:20.722Z,46.88
2023-10-07T19:16:22.648Z,44.70
2023-10-07T19:21:25.736Z,40.83
2023-10-07T19:26:27.727Z,37.47
2023-10-07T19:31:29.709Z,38.67
2023-10-07T19:36:32.937Z,36.00
2023-10-07T19:41:34.756Z,36.03
2023-10-07T19:46:36.570Z,35.45
2023-10-07T19:51:39.779Z,34.60
2023-10-07T19:56:41.568Z,32.03
2023-10-07T20:01:43.396Z,34.25
2023-10-07T20:06:46.541Z,33.85
2023-10-07T20:11:48.642Z,29.58
2023-10-07T20:16:50.956Z,29.63
2023-10-07T20:21:54.367Z,27.52
2023-10-07T20:26:59.048Z,26.73
2023-10-07T20:32:00.947Z,25.70
2023-10-07T20:37:10.461Z,23.25
2023-10-07T20:42:12.425Z,23.02
2023-10-07T20:47:14.316Z,22.65
2023-10-07T20:52:17.552Z,20.25
2023-10-07T20:57:19.361Z,21.48
2023-10-07T21:02:21.251Z,19.50
2023-10-07T21:07:24.589Z,19.65
2023-10-07T21:12:26.555Z,19.48
2023-10-07T21:17:28.788Z,19.27
2023-10-07T21:22:32.100Z,20.52
2023-10-07T21:27:33.882Z,20.52
2023-10-07T21:32:35.830Z,19.70
2023-10-07T21:37:41.594Z,22.35
2023-10-07T21:42:43.470Z,22.17
2023-10-07T21:47:45.290Z,23.12
2023-10-07T21:52:49.461Z,23.52
2023-10-07T21:57:51.842Z,22.27
2023-10-07T22:02:54.952Z,24.50
2023-10-07T22:07:59.310Z,24.80
2023-10-07T22:13:01.318Z,23.87
2023-10-07T22:18:03.418Z,20.00
2023-10-07T22:23:07.085Z,22.48
2023-10-07T22:28:08.944Z,23.50
2023-10-07T22:33:10.697Z,21.62
2023-10-07T22:38:14.817Z,22.92
2023-10-07T22:43:17.002Z,21.08
2023-10-07T22:48:20.061Z,21.98
2023-10-07T22:53:23.815Z,21.55
2023-10-07T22:58:29.015Z,22.58
2023-10-07T23:08:35.074Z,20.60
2023-10-07T23:13:36.844Z,21.20
2023-10-07T23:18:38.739Z,22.65
2023-10-07T23:23:41.913Z,24.37
2023-10-07T23:28:43.709Z,26.20
2023-10-07T23:33:45.884Z,26.15
2023-10-07T23:38:49.312Z,27.25
2023-10-07T23:43:51.401Z,27.55
2023-10-07T23:48:53.145Z,27.15
2023-10-07T23:53:56.255Z,26.17
2023-10-07T23:58:58.006Z,22.87
